Quick Links (Output Below):   Max & Min Temps   /   Climate Reports   /   Zone Forecasts
River Forecasts   /   Forestry Forecasts   /   Aviation Forecasts   /   Radars   /   Features

Terminal Aerodrome Forecast (El Dorado)

Pick a Site:
Arkadelphia | El Dorado | Fayetteville | Fort Smith | Harrison | Highfill | Hot Springs | Jonesboro
Little Rock | Monticello | Mountain Home | Pine Bluff | Texarkana
 Forecast 

KELD 240533Z 2406/2506 16003KT P6SM FEW250
     FM241100 00000KT 5SM BR FEW006
      TEMPO 2412/2414 3SM BR BKN006
     FM241400 20005KT P6SM SCT015
     FM241500 21006KT P6SM FEW035
     FM242100 17005KT P6SM SCT045
     FM250000 16005KT P6SM SKC=


 Latest METARs (Observations) 
How to Decode METARs
08Z KELD 240753Z AUTO 18003KT 10SM CLR 25/24 A3013 RMK AO2 SLP200
         T02500244
         
07Z KELD 240653Z AUTO 17003KT 10SM CLR 25/24 A3014 RMK AO2 SLP202
         T02500244
         
06Z KELD 240553Z AUTO 00000KT 10SM CLR 25/24 A3014 RMK AO2 SLP203
         T02500244 10311 20250 403280211 50006
         
05Z KELD 240453Z AUTO 15003KT 10SM CLR 26/25 A3015 RMK AO2 SLP204
         T02560250
         
04Z KELD 240353Z AUTO 15003KT 10SM CLR 26/25 A3015 RMK AO2 SLP204
         T02610250
         
03Z KELD 240253Z AUTO 14003KT 10SM CLR 27/25 A3012 RMK AO2 SLP197
         T02720250 53006
         
02Z KELD 240153Z AUTO 13005KT 10SM CLR 28/25 A3011 RMK AO2 SLP194
         T02780250
         
01Z KELD 240053Z AUTO 13004KT 10SM CLR 28/25 A3011 RMK AO2 SLP192
         T02830250
         
00Z KELD 232353Z AUTO 13005KT 10SM CLR 31/24 A3011 RMK AO2 SLP191
         T03110239 10328 20311 56012
         
***** Today's Observations (Above) *****


23Z KELD 232253Z AUTO 15006KT 10SM CLR 33/23 A3012 RMK AO2 SLP194
         T03280233
         
***** Yesterday's Observations (Above) *****


Back to Main Page
http://www.srh.noaa.gov/lzk/qfcst.php

USA.gov is the U.S. government's official web portal to all federal, state and local government web resources and services.